Time;durP1;ratioP1;P1;durP2;ratioP2;P2;SDS_P1;SDS_P2;PMS_P1;PMS_P2;Temp;Humidity;BMP_temperature;BMP_pressure;BME280_temperature;BME280_humidity;BME280_pressure;Samples;Min_cycle;Max_cycle;Signal;HPM_P1;HPM_P2
2022/12/12 00:02:22;;;;;;;4.42;2.90;;;;;;;1.07;100.00;97851.67;1727800;82;21054;-67
2022/12/12 00:04:49;;;;;;;5.17;3.20;;;;;;;1.09;100.00;97845.55;1737580;81;21038;-68
2022/12/12 00:07:16;;;;;;;4.35;2.90;;;;;;;1.13;100.00;97835.12;1727792;82;21082;-68
2022/12/12 00:09:44;;;;;;;3.75;2.70;;;;;;;1.13;100.00;97845.31;1741373;82;21038;-68
2022/12/12 00:12:11;;;;;;;4.20;2.80;;;;;;;1.06;100.00;97846.06;1724175;82;21085;-68
2022/12/12 00:14:40;;;;;;;6.58;2.95;;;;;;;1.03;100.00;97841.75;1727702;81;21572;-68
2022/12/12 00:17:07;;;;;;;3.35;2.50;;;;;;;1.04;100.00;97844.16;1725545;81;21037;-68
2022/12/12 00:19:34;;;;;;;3.65;2.95;;;;;;;1.05;100.00;97838.27;1735798;82;21073;-68
2022/12/12 00:22:01;;;;;;;4.78;3.55;;;;;;;0.98;100.00;97844.66;1722479;82;21055;-68
2022/12/12 00:24:28;;;;;;;4.00;3.15;;;;;;;0.96;100.00;97857.48;1733848;81;21034;-67
2022/12/12 00:26:55;;;;;;;4.00;3.00;;;;;;;0.99;100.00;97865.56;1733978;81;21121;-67
2022/12/12 00:29:22;;;;;;;5.12;3.30;;;;;;;1.00;100.00;97876.01;1706325;83;21214;-67
2022/12/12 00:31:49;;;;;;;7.10;4.25;;;;;;;0.99;100.00;97887.00;1722393;82;21588;-67
2022/12/12 00:34:16;;;;;;;5.80;3.95;;;;;;;0.95;100.00;97895.27;1722271;82;21070;-67
2022/12/12 00:36:44;;;;;;;5.25;3.50;;;;;;;0.93;100.00;97884.78;1724447;81;22154;-67
2022/12/12 00:39:11;;;;;;;4.90;3.20;;;;;;;0.95;100.00;97867.13;1718921;83;21037;-67
2022/12/12 00:41:38;;;;;;;5.37;3.58;;;;;;;0.95;100.00;97877.84;1721837;82;21114;-67
2022/12/12 00:44:05;;;;;;;4.72;3.37;;;;;;;0.94;100.00;97870.87;1721673;83;21090;-67
2022/12/12 00:46:33;;;;;;;4.60;3.10;;;;;;;0.87;100.00;97867.59;1720949;81;21051;-67
2022/12/12 00:49:00;;;;;;;4.20;3.12;;;;;;;0.87;100.00;97870.27;1732658;82;21167;-67
2022/12/12 00:51:28;;;;;;;3.90;2.98;;;;;;;0.90;100.00;97864.39;1732187;82;21554;-67
2022/12/12 00:53:56;;;;;;;4.28;3.15;;;;;;;0.91;100.00;97864.68;1736507;82;21027;-67
2022/12/12 00:56:24;;;;;;;3.90;2.83;;;;;;;0.84;100.00;97855.52;1730448;82;21030;-67
2022/12/12 00:58:50;;;;;;;4.25;2.72;;;;;;;0.81;100.00;97859.23;1723254;82;21030;-67
2022/12/12 01:01:23;;;;;;;4.05;2.80;;;;;;;0.85;100.00;97862.47;1721631;81;21035;-67
2022/12/12 01:03:50;;;;;;;4.87;2.85;;;;;;;0.87;100.00;97870.27;1721702;82;21585;-67
2022/12/12 01:06:18;;;;;;;4.45;3.35;;;;;;;0.84;100.00;97859.54;1687524;84;21426;-68
2022/12/12 01:08:45;;;;;;;4.15;3.00;;;;;;;0.81;100.00;97862.73;1684537;85;20992;-67
2022/12/12 01:11:14;;;;;;;5.12;2.80;;;;;;;0.86;100.00;97870.80;1725624;82;21011;-67
2022/12/12 01:13:41;;;;;;;3.67;2.70;;;;;;;0.90;100.00;97868.41;1721753;82;20956;-67
2022/12/12 01:16:08;;;;;;;3.92;3.10;;;;;;;0.88;100.00;97870.03;1720210;82;21589;-67
2022/12/12 01:18:36;;;;;;;3.72;2.72;;;;;;;0.87;100.00;97870.27;1717817;82;20972;-67
2022/12/12 01:21:05;;;;;;;4.05;3.08;;;;;;;0.93;100.00;97887.99;1727609;81;21715;-67
2022/12/12 01:23:32;;;;;;;4.85;3.40;;;;;;;0.96;100.00;97890.16;1726094;82;20971;-67
2022/12/12 01:26:08;;;;;;;5.70;3.83;;;;;;;0.95;100.00;97892.05;1721104;82;21049;-68
2022/12/12 01:28:35;;;;;;;5.42;3.67;;;;;;;0.93;100.00;97895.50;1726321;82;21518;-67
2022/12/12 01:31:04;;;;;;;5.58;3.85;;;;;;;0.87;100.00;97877.78;1722612;82;21034;-67
2022/12/12 01:33:31;;;;;;;3.95;3.00;;;;;;;0.87;100.00;97875.63;1717141;82;21449;-67
2022/12/12 01:35:58;;;;;;;4.58;3.05;;;;;;;0.88;100.00;97862.52;1722363;82;21515;-67
2022/12/12 01:38:25;;;;;;;5.90;3.35;;;;;;;0.83;100.00;97880.69;1725796;82;20999;-68
2022/12/12 01:40:52;;;;;;;4.92;3.10;;;;;;;0.74;100.00;97881.41;1725478;82;21151;-67
2022/12/12 01:43:20;;;;;;;4.90;3.47;;;;;;;0.74;100.00;97874.71;1726356;82;21021;-67
2022/12/12 01:46:02;;;;;;;4.75;3.42;;;;;;;0.75;100.00;97879.80;1727220;81;21015;-67
2022/12/12 01:48:44;;;;;;;5.00;3.55;;;;;;;0.68;100.00;97874.36;1731204;82;21496;-67
2022/12/12 01:51:14;;;;;;;5.37;3.50;;;;;;;0.63;100.00;97882.36;1724081;82;21098;-68
2022/12/12 01:53:41;;;;;;;4.72;2.92;;;;;;;0.64;100.00;97897.37;1682429;84;21003;-68
2022/12/12 01:56:11;;;;;;;5.58;3.58;;;;;;;0.67;100.00;97906.24;1726090;81;21106;-68
2022/12/12 01:58:43;;;;;;;6.35;3.75;;;;;;;0.68;100.00;97894.45;1716148;82;21014;-68
2022/12/12 02:01:11;;;;;;;4.70;3.50;;;;;;;0.68;100.00;97893.11;1719890;82;21090;-68
2022/12/12 02:03:38;;;;;;;5.35;3.67;;;;;;;0.67;100.00;97888.31;1725203;82;21479;-68
2022/12/12 02:06:09;;;;;;;5.83;3.90;;;;;;;0.68;100.00;97887.23;1724294;82;21035;-68
2022/12/12 02:08:36;;;;;;;5.28;3.77;;;;;;;0.70;100.00;97879.77;1728343;82;21035;-68
2022/12/12 02:11:04;;;;;;;5.50;4.28;;;;;;;0.64;100.00;97869.27;1719878;82;21042;-68
2022/12/12 02:13:31;;;;;;;5.03;3.60;;;;;;;0.61;100.00;97875.91;1716616;82;21038;-67
2022/12/12 02:16:39;;;;;;;5.08;3.65;;;;;;;0.64;100.00;97890.13;1721678;82;21081;-68
2022/12/12 02:20:03;;;;;;;5.50;3.80;;;;;;;0.66;100.00;97879.17;1718938;82;21553;-68
2022/12/12 02:22:52;;;;;;;5.70;4.00;;;;;;;0.62;100.00;97878.06;1716293;82;21113;-68
2022/12/12 02:25:43;;;;;;;5.92;4.10;;;;;;;0.49;100.00;97856.53;1724408;82;20988;-68
2022/12/12 02:28:41;;;;;;;7.85;4.90;;;;;;;0.43;100.00;97818.70;1729613;82;20975;-68
2022/12/12 02:31:40;;;;;;;6.67;4.87;;;;;;;0.45;100.00;97794.66;1727121;82;21011;-68
2022/12/12 02:34:20;;;;;;;5.90;4.42;;;;;;;0.36;100.00;97820.25;1655384;84;21530;-68
2022/12/12 02:37:10;;;;;;;7.00;5.17;;;;;;;0.30;100.00;97846.69;1692456;83;21050;-68
2022/12/12 02:39:48;;;;;;;7.72;5.72;;;;;;;0.33;100.00;97848.86;1688944;84;21061;-68
2022/12/12 02:42:29;;;;;;;7.12;5.37;;;;;;;0.35;100.00;97849.95;1688976;83;21034;-68
2022/12/12 02:45:13;;;;;;;8.03;5.78;;;;;;;0.33;100.00;97870.80;1678151;84;21106;-68
2022/12/12 02:47:46;;;;;;;10.00;5.97;;;;;;;0.26;100.00;97876.87;1686979;84;21152;-68
2022/12/12 02:50:19;;;;;;;9.00;5.25;;;;;;;0.23;100.00;97872.02;1679971;84;21129;-68
2022/12/12 02:52:46;;;;;;;7.05;5.15;;;;;;;0.23;100.00;97871.50;1663140;85;22224;-68
2022/12/12 02:55:14;;;;;;;8.05;5.58;;;;;;;0.20;100.00;97863.98;1666877;85;21098;-68
2022/12/12 02:57:41;;;;;;;8.10;5.90;;;;;;;0.20;100.00;97873.86;1694255;82;21727;-68
2022/12/12 03:00:16;;;;;;;7.00;5.15;;;;;;;0.24;100.00;97872.31;1683351;84;21046;-68
2022/12/12 03:02:51;;;;;;;6.72;5.15;;;;;;;0.24;100.00;97873.13;1679569;84;21126;-68
2022/12/12 03:08:37;;;;;;;7.62;5.85;;;;;;;0.15;100.00;97884.50;1662779;85;21033;-68
2022/12/12 03:11:11;;;;;;;8.58;6.20;;;;;;;0.14;100.00;97886.91;1696777;83;21105;-69
2022/12/12 03:13:49;;;;;;;8.33;5.67;;;;;;;0.16;100.00;97900.31;1679387;84;21093;-67
2022/12/12 03:16:39;;;;;;;7.17;5.53;;;;;;;0.14;100.00;97903.78;1692756;83;21576;-67
2022/12/12 03:19:29;;;;;;;8.33;5.60;;;;;;;0.09;100.00;97911.73;1625567;87;21022;-68
2022/12/12 03:22:26;;;;;;;8.68;6.03;;;;;;;0.06;100.00;97910.89;1666213;84;21091;-68
2022/12/12 03:25:16;;;;;;;6.65;5.28;;;;;;;0.08;100.00;97896.73;1690964;84;21099;-68
2022/12/12 03:27:51;;;;;;;8.00;6.03;;;;;;;0.09;100.00;97898.88;1685736;84;21664;-67
2022/12/12 03:30:18;;;;;;;7.70;5.70;;;;;;;0.00;100.00;97899.86;1678882;84;21074;-67
2022/12/12 03:32:54;;;;;;;7.62;5.80;;;;;;;-0.04;100.00;97912.89;1684571;84;21123;-68
2022/12/12 03:35:34;;;;;;;10.13;6.42;;;;;;;-0.04;100.00;97908.88;1677834;84;21079;-68
2022/12/12 03:38:12;;;;;;;6.97;5.05;;;;;;;-0.02;100.00;97911.32;1692848;84;20951;-68
2022/12/12 03:40:54;;;;;;;7.90;5.97;;;;;;;-0.01;100.00;97909.75;1718069;81;21569;-68
2022/12/12 03:43:36;;;;;;;9.83;6.15;;;;;;;-0.03;100.00;97901.14;1724509;82;21007;-68
2022/12/12 03:46:23;;;;;;;9.23;6.12;;;;;;;-0.14;100.00;97906.08;1712408;81;21035;-67
2022/12/12 03:49:08;;;;;;;8.75;5.92;;;;;;;-0.15;100.00;97913.84;1701145;83;20982;-68
2022/12/12 03:51:41;;;;;;;8.90;6.22;;;;;;;-0.15;100.00;97911.16;1723815;81;21545;-68
2022/12/12 03:54:22;;;;;;;8.93;6.10;;;;;;;-0.14;100.00;97917.30;1722041;82;21002;-68
2022/12/12 03:56:55;;;;;;;8.58;6.35;;;;;;;-0.14;100.00;97919.97;1724173;82;20991;-68
2022/12/12 03:59:32;;;;;;;9.23;6.55;;;;;;;-0.21;100.00;97913.99;1719047;82;20979;-68
2022/12/12 04:02:22;;;;;;;9.05;5.90;;;;;;;-0.17;100.00;97916.46;1722324;82;21058;-68
2022/12/12 04:05:03;;;;;;;8.03;6.03;;;;;;;-0.12;100.00;97930.73;1716266;82;21031;-68
2022/12/12 04:07:42;;;;;;;11.38;6.78;;;;;;;-0.10;100.00;97935.28;1721270;82;21041;-68
2022/12/12 04:13:29;;;;;;;8.88;6.25;;;;;;;-0.21;100.00;97924.69;1721724;83;21000;-68
2022/12/12 04:16:07;;;;;;;8.73;6.30;;;;;;;-0.23;100.00;97922.80;1716384;83;21041;-67
2022/12/12 04:18:42;;;;;;;9.40;6.20;;;;;;;-0.19;100.00;97930.62;1719812;82;21018;-68
2022/12/12 04:24:44;;;;;;;10.45;7.05;;;;;;;-0.30;100.00;97932.34;1723193;82;20985;-68
2022/12/12 04:27:38;;;;;;;10.25;7.30;;;;;;;-0.31;100.00;97928.04;1721823;81;21081;-67
2022/12/12 04:30:11;;;;;;;10.35;7.08;;;;;;;-0.27;100.00;97919.81;1718100;82;21054;-68
2022/12/12 04:33:01;;;;;;;9.60;7.10;;;;;;;-0.27;100.00;97933.70;1735429;82;21711;-68
2022/12/12 04:35:38;;;;;;;10.63;7.50;;;;;;;-0.33;100.00;97936.84;1734783;81;21050;-68
2022/12/12 04:38:08;;;;;;;11.28;7.90;;;;;;;-0.34;100.00;97938.41;1743419;82;21062;-68
2022/12/12 04:40:39;;;;;;;12.23;8.30;;;;;;;-0.31;100.00;97940.07;1708046;80;21089;-68
2022/12/12 04:43:20;;;;;;;11.15;7.72;;;;;;;-0.28;100.00;97943.59;1720541;82;21041;-68
2022/12/12 04:46:10;;;;;;;12.78;7.92;;;;;;;-0.34;100.00;97944.58;1725013;82;21096;-68
2022/12/12 04:48:45;;;;;;;12.20;7.87;;;;;;;-0.36;100.00;97947.22;1730328;81;21881;-68
2022/12/12 04:51:17;;;;;;;12.05;7.97;;;;;;;-0.34;100.00;97949.92;1730683;81;21668;-68
2022/12/12 04:53:51;;;;;;;9.85;6.85;;;;;;;-0.31;100.00;97953.96;1718895;82;21520;-68
2022/12/12 04:56:20;;;;;;;11.48;7.08;;;;;;;-0.30;100.00;97950.24;1670366;84;21116;-68
2022/12/12 04:58:47;;;;;;;11.43;6.95;;;;;;;-0.37;100.00;97954.43;1695976;83;21071;-68
2022/12/12 05:01:27;;;;;;;8.85;6.62;;;;;;;-0.42;100.00;97957.01;1714824;82;21113;-68
2022/12/12 05:03:57;;;;;;;10.95;7.00;;;;;;;-0.43;100.00;97965.30;1694542;83;21014;-68
2022/12/12 05:06:29;;;;;;;12.07;7.90;;;;;;;-0.46;100.00;97963.11;1697281;83;21046;-68
2022/12/12 05:08:56;;;;;;;11.60;8.03;;;;;;;-0.50;100.00;97972.92;1701729;83;21006;-68
2022/12/12 05:11:23;;;;;;;12.53;8.70;;;;;;;-0.53;100.00;97971.27;1716322;82;21054;-68
2022/12/12 05:13:50;;;;;;;12.13;7.70;;;;;;;-0.54;100.00;97968.34;1694943;83;20986;-68
2022/12/12 05:16:28;;;;;;;11.78;8.00;;;;;;;-0.52;100.00;97967.55;1671280;85;21092;-68
2022/12/12 05:18:55;;;;;;;12.75;8.70;;;;;;;-0.54;100.00;97967.00;1668424;85;20984;-68
2022/12/12 05:21:22;;;;;;;14.25;8.80;;;;;;;-0.60;100.00;97962.60;1665498;85;21574;-68
2022/12/12 05:23:50;;;;;;;13.32;8.90;;;;;;;-0.69;100.00;97965.41;1653602;85;21052;-67
2022/12/12 05:26:26;;;;;;;11.83;7.78;;;;;;;-0.75;100.00;97961.86;1688490;83;21625;-67
2022/12/12 05:28:53;;;;;;;12.73;8.35;;;;;;;-0.75;100.00;97966.39;1671742;84;21041;-67
2022/12/12 05:31:20;;;;;;;12.78;8.95;;;;;;;-0.77;100.00;97968.47;1686881;84;21154;-68
2022/12/12 05:33:47;;;;;;;13.53;9.15;;;;;;;-0.79;100.00;97971.92;1652705;85;21036;-67
2022/12/12 05:36:16;;;;;;;14.07;9.10;;;;;;;-0.86;100.00;97974.76;1667915;84;21697;-68
2022/12/12 05:38:43;;;;;;;14.70;9.55;;;;;;;-0.89;100.00;97983.25;1720821;82;21034;-68
2022/12/12 05:41:10;;;;;;;14.45;10.40;;;;;;;-0.88;100.00;97983.52;1728509;82;21425;-68
2022/12/12 05:43:39;;;;;;;15.72;10.88;;;;;;;-0.88;100.00;97982.70;1725435;82;21401;-67
2022/12/12 05:46:06;;;;;;;16.75;10.28;;;;;;;-0.94;100.00;97991.16;1720747;82;21169;-68
2022/12/12 05:48:33;;;;;;;12.50;8.53;;;;;;;-0.92;100.00;98005.08;1720150;82;21055;-68
2022/12/12 05:51:02;;;;;;;13.45;9.50;;;;;;;-0.90;100.00;98005.67;1722800;82;21090;-67
2022/12/12 05:53:30;;;;;;;11.90;8.48;;;;;;;-0.88;100.00;98004.08;1725643;82;21089;-68
2022/12/12 05:55:57;;;;;;;13.08;9.50;;;;;;;-0.92;100.00;98004.30;1724613;82;21635;-67
2022/12/12 05:58:24;;;;;;;12.73;8.80;;;;;;;-0.97;100.00;98013.02;1724265;82;21538;-68
2022/12/12 06:00:51;;;;;;;14.73;9.18;;;;;;;-0.96;100.00;98018.66;1727705;81;21728;-67
2022/12/12 06:03:20;;;;;;;13.85;9.75;;;;;;;-0.92;100.00;98017.10;1724764;82;21027;-68
2022/12/12 06:05:48;;;;;;;13.78;8.88;;;;;;;-0.89;100.00;98017.98;1727083;82;21075;-68
2022/12/12 06:08:15;;;;;;;14.07;9.48;;;;;;;-0.86;100.00;98015.34;1717247;82;21041;-67
2022/12/12 06:10:44;;;;;;;16.35;10.70;;;;;;;-0.89;100.00;98022.52;1723192;82;21086;-68
2022/12/12 06:13:12;;;;;;;11.80;8.15;;;;;;;-0.89;100.00;98024.66;1727418;82;21035;-68
2022/12/12 06:15:40;;;;;;;13.65;9.38;;;;;;;-0.86;100.00;98040.73;1725666;82;20997;-68
2022/12/12 06:18:11;;;;;;;13.60;9.25;;;;;;;-0.80;100.00;98045.10;1727438;82;20967;-69
2022/12/12 09:58:23;;;;;;;38.98;23.25;;;;;;;-2.04;100.00;98230.55;1795288;78;22782;-67
2022/12/12 10:01:10;;;;;;;38.88;22.75;;;;;;;-1.94;100.00;98246.80;1751040;81;21089;-68
2022/12/12 10:03:42;;;;;;;32.33;18.70;;;;;;;-1.68;100.00;98241.59;1757127;81;21085;-68
2022/12/12 10:06:10;;;;;;;29.42;19.27;;;;;;;-1.49;100.00;98243.66;1754971;81;21101;-68
2022/12/12 10:09:16;;;;;;;24.63;15.70;;;;;;;-1.33;100.00;98254.98;1757594;81;21029;-68
2022/12/12 10:11:49;;;;;;;23.92;14.95;;;;;;;-1.21;100.00;98260.63;1761196;81;21046;-67
2022/12/12 10:14:35;;;;;;;23.05;15.43;;;;;;;-1.15;100.00;98266.37;1753260;81;21045;-68
2022/12/12 10:17:16;;;;;;;23.02;15.45;;;;;;;-1.05;100.00;98265.78;1756453;81;21003;-68
2022/12/12 10:19:55;;;;;;;24.15;16.17;;;;;;;-0.98;100.00;98258.45;1751886;81;21043;-68
2022/12/12 10:22:36;;;;;;;24.55;14.78;;;;;;;-0.85;100.00;98267.55;1715357;81;20992;-68
2022/12/12 10:25:26;;;;;;;18.57;12.43;;;;;;;-0.76;100.00;98265.35;1733321;81;21057;-68
2022/12/12 10:27:56;;;;;;;23.00;13.80;;;;;;;-0.72;100.00;98278.53;1758811;81;21516;-68
2022/12/12 10:30:23;;;;;;;19.00;12.98;;;;;;;-0.66;100.00;98270.91;1744257;81;21052;-68
2022/12/12 10:33:17;;;;;;;18.60;12.63;;;;;;;-0.58;100.00;98275.38;1755061;81;21124;-70
2022/12/12 10:35:55;;;;;;;18.15;11.93;;;;;;;-0.56;100.00;98285.30;1671978;83;21170;-68
2022/12/12 10:38:43;;;;;;;18.80;12.20;;;;;;;-0.55;100.00;98282.92;1729155;83;21007;-67
2022/12/12 10:41:24;;;;;;;19.17;12.37;;;;;;;-0.50;100.00;98280.89;1729716;83;21091;-69
2022/12/12 10:44:30;;;;;;;19.73;12.88;;;;;;;-0.49;100.00;98278.48;1724143;81;21540;-68
2022/12/12 10:47:05;;;;;;;18.27;12.25;;;;;;;-0.47;100.00;98284.42;1717531;83;21057;-68
2022/12/12 10:49:36;;;;;;;19.48;12.23;;;;;;;-0.49;100.00;98294.52;1720529;81;21160;-68
2022/12/12 10:52:06;;;;;;;17.73;11.38;;;;;;;-0.47;100.00;98292.96;1754504;81;21063;-69
2022/12/12 10:54:38;;;;;;;17.17;10.98;;;;;;;-0.42;100.00;98291.19;1756389;80;21066;-69
2022/12/12 10:57:22;;;;;;;19.37;13.18;;;;;;;-0.47;100.00;98299.13;1752657;81;21043;-68
2022/12/12 10:59:53;;;;;;;20.45;12.70;;;;;;;-0.50;100.00;98292.91;1734440;82;21055;-67
2022/12/12 11:02:38;;;;;;;20.10;12.95;;;;;;;-0.53;100.00;98295.52;1717221;82;21047;-67
2022/12/12 11:05:16;;;;;;;18.82;12.35;;;;;;;-0.51;100.00;98304.65;1739530;82;21588;-67
2022/12/12 11:07:48;;;;;;;20.80;13.55;;;;;;;-0.54;100.00;98299.26;1746294;82;21126;-67
2022/12/12 11:10:26;;;;;;;20.27;13.03;;;;;;;-0.57;100.00;98301.03;1739609;82;21567;-68
2022/12/12 11:13:14;;;;;;;17.50;11.65;;;;;;;-0.55;100.00;98296.80;1721499;82;21057;-67
2022/12/12 11:15:50;;;;;;;19.65;12.65;;;;;;;-0.54;100.00;98302.45;1744988;82;21034;-68
2022/12/12 11:18:21;;;;;;;21.02;13.60;;;;;;;-0.54;100.00;98306.45;1720984;82;20991;-67
2022/12/12 11:20:58;;;;;;;19.57;13.48;;;;;;;-0.56;100.00;98302.67;1738512;82;21082;-67
2022/12/12 11:23:26;;;;;;;20.68;14.25;;;;;;;-0.56;100.00;98304.01;1720304;82;21510;-68
2022/12/12 11:25:57;;;;;;;18.55;12.63;;;;;;;-0.52;100.00;98309.70;1742579;82;21444;-68
2022/12/12 11:28:28;;;;;;;17.42;11.97;;;;;;;-0.51;100.00;98313.48;1740430;82;21012;-68
2022/12/12 11:30:55;;;;;;;15.58;10.58;;;;;;;-0.46;100.00;98322.66;1746079;81;21521;-68
2022/12/12 11:33:45;;;;;;;16.80;9.38;;;;;;;-0.47;100.00;98316.50;1747525;82;20999;-67
2022/12/12 11:36:16;;;;;;;14.38;9.48;;;;;;;-0.53;100.00;98311.55;1728351;82;21049;-67
2022/12/12 11:38:53;;;;;;;17.25;10.93;;;;;;;-0.56;100.00;98309.35;1746986;81;21030;-67
2022/12/12 11:41:21;;;;;;;16.40;11.43;;;;;;;-0.57;100.00;98317.08;1722134;82;21064;-67
2022/12/12 11:43:52;;;;;;;18.30;12.18;;;;;;;-0.53;100.00;98321.42;1747429;82;21405;-68
2022/12/12 11:46:25;;;;;;;15.98;10.90;;;;;;;-0.50;100.00;98327.12;1728003;82;21082;-68
2022/12/12 11:49:02;;;;;;;16.52;10.80;;;;;;;-0.50;100.00;98331.13;1728491;81;21299;-67
2022/12/12 11:51:42;;;;;;;15.28;10.35;;;;;;;-0.47;100.00;98330.39;1716450;82;21070;-68
2022/12/12 11:54:25;;;;;;;21.12;14.35;;;;;;;-0.51;100.00;98324.70;1733152;82;21086;-68
2022/12/12 11:57:01;;;;;;;15.58;9.88;;;;;;;-0.54;100.00;98328.66;1699632;82;21038;-68
2022/12/12 12:00:07;;;;;;;16.52;10.50;;;;;;;-0.58;100.00;98331.50;1695002;83;21989;-68
2022/12/12 12:02:49;;;;;;;17.90;11.68;;;;;;;-0.56;100.00;98337.94;1722625;83;21361;-68
2022/12/12 12:05:40;;;;;;;16.35;10.68;;;;;;;-0.59;100.00;98341.90;1712233;83;21090;-68
2022/12/12 12:08:18;;;;;;;18.57;11.40;;;;;;;-0.59;100.00;98337.89;1719080;83;21124;-67
2022/12/12 12:11:16;;;;;;;21.33;13.88;;;;;;;-0.62;100.00;98340.22;1722055;83;21038;-68
2022/12/12 12:14:21;;;;;;;15.93;11.03;;;;;;;-0.65;100.00;98351.38;1723267;83;21553;-68
2022/12/12 12:17:11;;;;;;;14.60;9.65;;;;;;;-0.67;100.00;98337.42;1705870;83;21597;-68
2022/12/12 12:20:09;;;;;;;14.63;10.05;;;;;;;-0.69;100.00;98336.34;1686699;83;21123;-68
2022/12/12 12:22:50;;;;;;;15.72;10.00;;;;;;;-0.70;100.00;98331.21;1678210;83;21146;-68
2022/12/12 12:25:38;;;;;;;19.23;11.97;;;;;;;-0.73;100.00;98331.16;1675813;85;21098;-68
2022/12/12 12:28:35;;;;;;;15.88;10.20;;;;;;;-0.74;100.00;98336.20;1672563;83;21113;-68
2022/12/12 12:31:25;;;;;;;16.37;10.43;;;;;;;-0.75;100.00;98337.80;1675302;84;21101;-68
2022/12/12 12:34:18;;;;;;;19.80;12.53;;;;;;;-0.75;100.00;98342.62;1697418;84;21056;-68
2022/12/12 12:37:09;;;;;;;17.73;10.93;;;;;;;-0.74;100.00;98344.74;1619661;84;21181;-68
2022/12/12 12:40:03;;;;;;;16.48;10.85;;;;;;;-0.69;100.00;98347.02;1684720;84;21757;-68
2022/12/12 12:42:53;;;;;;;15.65;9.48;;;;;;;-0.66;100.00;98345.73;1672407;86;21119;-68
2022/12/12 12:45:58;;;;;;;18.67;11.22;;;;;;;-0.67;100.00;98340.91;1671857;86;21200;-69
2022/12/12 12:48:33;;;;;;;15.50;10.45;;;;;;;-0.65;100.00;98344.70;1698119;84;21062;-68
2022/12/12 12:51:15;;;;;;;17.95;11.83;;;;;;;-0.67;100.00;98344.92;1698593;83;21062;-68
2022/12/12 12:54:02;;;;;;;17.55;10.88;;;;;;;-0.66;100.00;98345.22;1701664;84;21061;-69
2022/12/12 12:56:32;;;;;;;19.15;11.90;;;;;;;-0.63;100.00;98351.95;1703136;84;21536;-69
2022/12/12 12:59:05;;;;;;;19.55;12.58;;;;;;;-0.60;100.00;98358.97;1685371;85;21035;-68
2022/12/12 13:01:46;;;;;;;17.57;11.33;;;;;;;-0.56;100.00;98351.30;1656747;85;21688;-68
2022/12/12 13:04:27;;;;;;;19.45;11.63;;;;;;;-0.56;100.00;98353.45;1735567;81;21076;-69
2022/12/12 13:07:07;;;;;;;19.95;12.60;;;;;;;-0.56;100.00;98349.45;1721294;83;21134;-69
2022/12/12 13:09:55;;;;;;;17.52;11.12;;;;;;;-0.56;100.00;98353.45;1721700;82;21101;-69
2022/12/12 13:12:36;;;;;;;20.90;12.90;;;;;;;-0.57;100.00;98350.48;1746026;82;21062;-68
2022/12/12 13:15:08;;;;;;;18.37;11.97;;;;;;;-0.56;100.00;98353.45;1747782;82;21052;-70
2022/12/12 13:17:42;;;;;;;19.55;12.30;;;;;;;-0.57;100.00;98363.06;1732175;82;21089;-69
2022/12/12 13:20:16;;;;;;;17.10;10.70;;;;;;;-0.58;100.00;98360.91;1736431;82;21153;-69
2022/12/12 13:22:55;;;;;;;18.10;10.90;;;;;;;-0.55;100.00;98367.64;1743976;82;21051;-68
2022/12/12 13:25:58;;;;;;;16.65;11.25;;;;;;;-0.55;100.00;98372.47;1726473;82;21065;-68
2022/12/12 13:28:29;;;;;;;18.73;11.25;;;;;;;-0.55;100.00;98372.98;1736275;82;21061;-69
2022/12/12 13:31:39;;;;;;;18.82;12.07;;;;;;;-0.58;100.00;98373.45;1721419;82;21502;-69
2022/12/12 13:34:15;;;;;;;16.32;10.85;;;;;;;-0.57;100.00;98373.20;1709299;81;21038;-68
2022/12/12 13:36:45;;;;;;;17.17;11.03;;;;;;;-0.60;100.00;98372.34;1738589;82;20975;-69
2022/12/12 13:39:29;;;;;;;18.20;10.98;;;;;;;-0.62;100.00;98374.45;1740440;82;21090;-69
2022/12/12 13:42:03;;;;;;;17.73;11.05;;;;;;;-0.62;100.00;98370.95;1751082;82;20967;-69
2022/12/12 13:44:47;;;;;;;19.35;12.00;;;;;;;-0.63;100.00;98370.14;1752451;82;21101;-69
2022/12/12 13:47:25;;;;;;;17.35;11.55;;;;;;;-0.58;100.00;98384.97;1723770;82;21044;-69
2022/12/12 13:49:58;;;;;;;19.52;11.57;;;;;;;-0.56;100.00;98381.52;1752483;82;21052;-69
2022/12/12 13:52:41;;;;;;;20.70;12.82;;;;;;;-0.53;100.00;98393.60;1748265;82;21381;-69
2022/12/12 13:55:17;;;;;;;18.23;12.88;;;;;;;-0.53;100.00;98397.09;1746185;82;21121;-69
2022/12/12 13:58:05;;;;;;;19.77;13.13;;;;;;;-0.52;100.00;98399.25;1746064;82;21031;-69
2022/12/12 14:00:38;;;;;;;18.75;12.68;;;;;;;-0.50;100.00;98401.97;1715904;83;21059;-69
2022/12/12 14:03:20;;;;;;;18.85;12.00;;;;;;;-0.46;100.00;98409.55;1717621;83;21026;-69
2022/12/12 14:05:52;;;;;;;19.30;11.90;;;;;;;-0.47;100.00;98407.39;1728154;82;21076;-69
2022/12/12 14:08:27;;;;;;;16.50;11.48;;;;;;;-0.48;100.00;98408.95;1747280;82;21024;-69
2022/12/12 14:11:01;;;;;;;19.07;11.97;;;;;;;-0.48;100.00;98407.61;1717608;83;21043;-70
2022/12/12 14:13:46;;;;;;;19.32;12.75;;;;;;;-0.46;100.00;98409.55;1717588;83;21023;-69
2022/12/12 14:16:18;;;;;;;21.48;15.18;;;;;;;-0.46;100.00;98402.86;1710764;82;21035;-69
2022/12/12 14:19:00;;;;;;;27.50;18.07;;;;;;;-0.46;100.00;98402.86;1713557;82;21015;-70
2022/12/12 14:21:47;;;;;;;21.02;12.63;;;;;;;-0.45;100.00;98410.63;1717884;83;20980;-70
2022/12/12 14:24:37;;;;;;;17.48;10.55;;;;;;;-0.47;100.00;98419.42;1730644;82;21101;-70
2022/12/12 18:36:44;;;;;;;40.70;23.45;;;;;;;-2.11;100.00;98561.79;1800083;79;22960;-68
2022/12/12 18:39:11;;;;;;;41.23;24.72;;;;;;;-2.07;100.00;98562.98;1755591;81;21628;-68
2022/12/12 18:41:38;;;;;;;39.45;25.00;;;;;;;-1.88;100.00;98574.00;1750096;82;21038;-68
2022/12/12 18:44:07;;;;;;;27.35;19.15;;;;;;;-1.72;100.00;98574.75;1751266;82;21124;-69
2022/12/12 18:46:35;;;;;;;28.83;18.92;;;;;;;-1.61;100.00;98570.02;1751133;81;21586;-69
2022/12/12 18:49:02;;;;;;;25.97;18.07;;;;;;;-1.41;100.00;98591.13;1739600;82;21112;-68
2022/12/12 18:51:29;;;;;;;24.67;17.05;;;;;;;-1.30;100.00;98593.06;1738619;82;21027;-69
2022/12/12 18:54:00;;;;;;;26.10;18.50;;;;;;;-1.23;100.00;98592.98;1744753;82;21019;-68
2022/12/12 18:56:28;;;;;;;27.75;18.42;;;;;;;-1.13;100.00;98598.60;1729631;81;21010;-68
2022/12/12 18:58:56;;;;;;;30.12;19.92;;;;;;;-0.99;100.00;98593.39;1740614;82;21025;-67
2022/12/12 19:01:27;;;;;;;31.90;21.30;;;;;;;-0.93;100.00;98599.19;1749461;82;21061;-71
2022/12/12 19:03:55;;;;;;;38.73;25.27;;;;;;;-0.87;100.00;98605.47;1745129;81;21098;-67
2022/12/12 19:06:32;;;;;;;33.75;22.22;;;;;;;-0.76;100.00;98608.72;1744657;82;21011;-67
2022/12/12 19:08:56;;;;;;;33.67;22.40;;;;;;;-0.72;100.00;98613.39;1732901;82;21054;-67
2022/12/12 19:11:24;;;;;;;24.95;17.73;;;;;;;-0.70;100.00;98615.30;1739666;82;21541;-68
2022/12/12 19:13:51;;;;;;;25.92;16.37;;;;;;;-0.67;100.00;98613.52;1730871;80;21098;-68
2022/12/12 19:16:19;;;;;;;24.70;16.55;;;;;;;-0.67;100.00;98608.69;1731723;82;21651;-68
2022/12/12 19:18:46;;;;;;;22.98;16.00;;;;;;;-0.63;100.00;98609.34;1734227;82;21050;-68
2022/12/12 19:21:19;;;;;;;23.70;16.12;;;;;;;-0.64;100.00;98618.41;1726697;82;21002;-68
2022/12/12 19:23:46;;;;;;;23.55;16.55;;;;;;;-0.66;100.00;98617.01;1728893;82;21060;-68
2022/12/12 19:26:24;;;;;;;22.80;16.50;;;;;;;-0.64;100.00;98610.94;1732122;82;21050;-69
2022/12/12 19:28:48;;;;;;;24.20;16.65;;;;;;;-0.63;100.00;98616.55;1731636;82;21126;-68
2022/12/12 19:31:15;;;;;;;24.70;17.87;;;;;;;-0.61;100.00;98616.64;1737880;82;21003;-68
2022/12/12 19:33:43;;;;;;;23.98;16.93;;;;;;;-0.57;100.00;98615.66;1716237;82;21078;-68
2022/12/12 19:36:19;;;;;;;30.48;20.97;;;;;;;-0.56;100.00;98619.42;1709235;82;21560;-69
2022/12/12 19:38:47;;;;;;;30.40;20.60;;;;;;;-0.52;100.00;98625.95;1714935;82;21545;-68
2022/12/12 19:41:16;;;;;;;30.77;21.17;;;;;;;-0.50;100.00;98631.88;1709306;82;21090;-69
2022/12/12 19:43:44;;;;;;;25.60;18.90;;;;;;;-0.51;100.00;98640.14;1722303;82;21072;-68
2022/12/12 19:46:21;;;;;;;26.57;18.87;;;;;;;-0.50;100.00;98638.56;1715142;82;21061;-69
2022/12/12 19:48:54;;;;;;;29.05;20.65;;;;;;;-0.48;100.00;98637.01;1725641;81;21038;-69
2022/12/12 19:51:22;;;;;;;26.57;18.77;;;;;;;-0.48;100.00;98637.01;1702910;82;20992;-68
2022/12/12 19:53:52;;;;;;;29.18;19.65;;;;;;;-0.48;100.00;98646.88;1721949;82;21603;-67
2022/12/12 19:56:21;;;;;;;30.00;19.67;;;;;;;-0.47;100.00;98650.68;1717356;82;20996;-68